createdAt,value
2023-01-03T00:00:22.646Z,67.89
2023-01-03T00:03:46.299Z,67.88
2023-01-03T00:06:51.454Z,67.87
2023-01-03T00:09:54.670Z,67.83
2023-01-03T00:12:57.918Z,67.75
2023-01-03T00:16:01.348Z,67.82
2023-01-03T00:19:08.763Z,68.02
2023-01-03T00:22:13.780Z,67.80
2023-01-03T00:25:17.790Z,68.14
2023-01-03T00:28:20.986Z,68.10
2023-01-03T00:31:24.304Z,68.14
2023-01-03T00:34:28.272Z,68.05
2023-01-03T00:37:31.640Z,68.08
2023-01-03T00:40:34.848Z,68.02
2023-01-03T00:43:39.168Z,67.90
2023-01-03T00:46:42.526Z,68.12
2023-01-03T00:49:45.752Z,68.15
2023-01-03T00:52:49.008Z,68.01
2023-01-03T00:55:52.188Z,68.16
2023-01-03T00:58:56.244Z,68.04
2023-01-03T01:01:59.531Z,68.11
2023-01-03T01:05:02.961Z,68.04
2023-01-03T01:08:06.201Z,68.03
2023-01-03T01:11:11.164Z,68.18
2023-01-03T01:14:22.134Z,67.99
2023-01-03T01:17:28.296Z,68.10
2023-01-03T01:20:31.507Z,68.01
2023-01-03T01:23:39.597Z,68.01
2023-01-03T01:26:42.821Z,67.99
2023-01-03T01:29:46.108Z,68.08
2023-01-03T01:32:49.372Z,68.13
2023-01-03T01:35:52.528Z,68.21
2023-01-03T01:38:58.918Z,68.06
2023-01-03T01:42:30.538Z,67.91
2023-01-03T01:45:35.409Z,67.92
2023-01-03T01:48:39.656Z,68.02
2023-01-03T01:51:43.388Z,67.98
2023-01-03T01:54:49.480Z,68.16
2023-01-03T01:57:53.343Z,67.88
2023-01-03T02:00:57.945Z,67.84
2023-01-03T02:04:30.389Z,67.85
2023-01-03T02:07:34.279Z,67.94
2023-01-03T02:10:48.832Z,67.94
2023-01-03T02:14:29.666Z,67.95
2023-01-03T02:17:45.417Z,67.91
2023-01-03T02:20:54.384Z,67.93
2023-01-03T02:23:57.703Z,67.96
2023-01-03T02:27:33.125Z,67.97
2023-01-03T02:30:39.424Z,67.89
2023-01-03T02:33:59.735Z,67.83
2023-01-03T02:37:21.787Z,67.88
2023-01-03T02:40:30.780Z,67.77
2023-01-03T02:43:52.375Z,67.77
2023-01-03T02:47:17.960Z,67.83
2023-01-03T02:50:25.894Z,67.81
2023-01-03T02:53:35.064Z,67.62
2023-01-03T02:56:51.500Z,67.65
2023-01-03T02:59:59.956Z,67.73
2023-01-03T03:03:10.184Z,67.76
2023-01-03T03:06:25.683Z,67.66
2023-01-03T03:09:30.411Z,67.51
2023-01-03T03:12:56.288Z,67.47
2023-01-03T03:16:11.209Z,67.30
2023-01-03T03:19:14.373Z,67.37
2023-01-03T03:22:44.999Z,67.43
2023-01-03T03:25:52.706Z,67.34
2023-01-03T03:29:02.722Z,67.30
2023-01-03T03:32:06.033Z,67.28
2023-01-03T03:35:14.086Z,67.50
2023-01-03T03:38:23.997Z,67.46
2023-01-03T03:42:10.843Z,67.35
2023-01-03T03:45:49.372Z,67.44
2023-01-03T03:49:19.547Z,67.33
2023-01-03T03:52:28.483Z,67.25
2023-01-03T03:55:39.932Z,67.18
2023-01-03T03:58:50.057Z,67.41
2023-01-03T04:01:55.790Z,67.35
2023-01-03T04:05:04.137Z,67.19
2023-01-03T04:08:07.895Z,67.45
2023-01-03T04:11:11.275Z,67.23
2023-01-03T04:14:14.514Z,67.11
2023-01-03T04:17:17.746Z,67.21
2023-01-03T04:20:20.984Z,67.08
2023-01-03T04:23:24.655Z,67.13
2023-01-03T04:26:27.840Z,66.99
2023-01-03T04:29:37.090Z,67.06
2023-01-03T04:32:42.315Z,67.13
2023-01-03T04:35:45.517Z,67.03
2023-01-03T04:38:48.941Z,67.25
2023-01-03T04:41:52.134Z,67.28
2023-01-03T04:44:55.334Z,67.17
2023-01-03T04:47:58.552Z,67.23
2023-01-03T04:51:01.815Z,67.06
2023-01-03T04:54:06.272Z,67.17
2023-01-03T04:57:10.484Z,67.18
2023-01-03T05:00:14.229Z,67.33
2023-01-03T05:03:21.233Z,67.28
2023-01-03T05:06:29.645Z,67.08
2023-01-03T05:09:32.863Z,67.29
2023-01-03T05:12:36.105Z,67.25
2023-01-03T05:15:39.831Z,67.33
2023-01-03T05:18:43.124Z,67.43
2023-01-03T05:22:05.197Z,67.32
2023-01-03T05:25:28.210Z,67.32
2023-01-03T05:28:31.885Z,67.38
2023-01-03T05:31:35.106Z,67.43
2023-01-03T05:34:38.396Z,67.19
2023-01-03T05:37:41.591Z,67.35
2023-01-03T05:40:44.952Z,67.25
2023-01-03T05:43:48.133Z,67.17
2023-01-03T05:46:51.503Z,67.36
2023-01-03T05:49:54.773Z,67.39
2023-01-03T05:52:58.104Z,67.24
2023-01-03T05:56:05.848Z,67.41
2023-01-03T05:59:09.135Z,67.38
2023-01-03T06:02:12.522Z,67.49
2023-01-03T06:05:15.893Z,67.56
2023-01-03T06:08:19.150Z,67.34
2023-01-03T06:11:22.744Z,67.49
2023-01-03T06:14:26.820Z,67.39
2023-01-03T06:17:48.552Z,67.46
2023-01-03T06:20:51.735Z,67.41
2023-01-03T06:23:55.007Z,67.48
2023-01-03T06:26:58.322Z,67.61
2023-01-03T06:30:01.605Z,67.59
2023-01-03T06:33:04.925Z,67.46
2023-01-03T06:36:11.126Z,67.46
2023-01-03T06:39:14.363Z,67.59
2023-01-03T06:42:36.079Z,67.54
2023-01-03T06:45:57.814Z,67.48
2023-01-03T06:49:19.824Z,67.51
2023-01-03T06:52:42.206Z,67.43
2023-01-03T06:55:49.989Z,67.56
2023-01-03T06:58:57.592Z,67.42
2023-01-03T07:02:01.038Z,67.37
2023-01-03T07:05:04.611Z,67.43
2023-01-03T07:08:07.836Z,67.52
2023-01-03T07:11:11.063Z,67.34
2023-01-03T07:14:14.320Z,67.29
2023-01-03T07:17:18.046Z,67.29
2023-01-03T07:20:21.324Z,67.42
2023-01-03T07:23:24.560Z,67.43
2023-01-03T07:26:30.894Z,67.50
2023-01-03T07:29:34.169Z,67.48
2023-01-03T07:32:37.367Z,67.49
2023-01-03T07:35:40.917Z,67.63
2023-01-03T07:38:45.596Z,67.60
2023-01-03T07:42:07.302Z,67.60
2023-01-03T07:45:10.852Z,67.67
2023-01-03T07:48:14.886Z,67.61
2023-01-03T07:51:20.306Z,67.54
2023-01-03T07:54:23.587Z,67.69
2023-01-03T07:57:28.102Z,67.64
2023-01-03T08:00:31.540Z,67.68
2023-01-03T08:03:36.285Z,67.67
2023-01-03T08:06:40.521Z,67.60
2023-01-03T08:10:02.441Z,67.57
2023-01-03T08:13:18.603Z,67.50
2023-01-03T08:16:22.142Z,67.60
2023-01-03T08:19:25.469Z,67.46
2023-01-03T08:22:29.637Z,67.66
2023-01-03T08:25:33.120Z,67.60
2023-01-03T08:28:37.319Z,67.52
2023-01-03T08:31:56.400Z,67.49
2023-01-03T08:35:01.103Z,67.50
2023-01-03T08:38:07.361Z,67.48
2023-01-03T08:41:17.861Z,67.43
2023-01-03T08:44:21.426Z,67.43
2023-01-03T08:47:25.097Z,67.29
2023-01-03T08:50:30.676Z,67.44
2023-01-03T08:53:34.294Z,67.29
2023-01-03T08:56:38.768Z,67.30
2023-01-03T08:59:42.307Z,67.16
2023-01-03T09:02:46.049Z,67.12
2023-01-03T09:05:49.742Z,67.03
2023-01-03T09:08:53.448Z,67.03
2023-01-03T09:11:57.016Z,67.10
2023-01-03T09:15:01.202Z,66.87
2023-01-03T09:18:05.232Z,66.93
2023-01-03T09:21:09.217Z,66.96
2023-01-03T09:24:12.881Z,66.75
2023-01-03T09:27:16.423Z,66.96
2023-01-03T09:30:21.023Z,66.76
2023-01-03T09:33:24.577Z,66.58
2023-01-03T09:36:28.215Z,66.37
2023-01-03T09:39:31.769Z,66.38
2023-01-03T09:42:55.706Z,66.28
2023-01-03T09:46:01.764Z,66.19
2023-01-03T09:49:07.483Z,66.14
2023-01-03T09:52:37.399Z,66.02
2023-01-03T09:56:25.819Z,65.81
2023-01-03T09:59:54.640Z,65.58
2023-01-03T10:03:50.272Z,65.59
2023-01-03T10:07:22.170Z,65.28
2023-01-03T10:10:32.262Z,65.13
2023-01-03T10:14:07.274Z,64.95
2023-01-03T10:17:20.491Z,65.01
2023-01-03T10:20:36.269Z,65.21
2023-01-03T10:23:40.092Z,65.16
2023-01-03T10:26:43.762Z,65.34
2023-01-03T10:29:49.916Z,65.18
2023-01-03T10:33:19.182Z,65.21
2023-01-03T10:36:24.065Z,65.14
2023-01-03T10:39:36.540Z,65.28
2023-01-03T10:42:43.792Z,65.07
2023-01-03T10:45:54.815Z,65.09
2023-01-03T10:49:28.013Z,65.12
2023-01-03T10:52:37.712Z,64.88
2023-01-03T10:55:54.712Z,64.87
2023-01-03T10:59:13.871Z,64.74
2023-01-03T11:02:19.348Z,64.77
2023-01-03T11:05:26.677Z,64.85
2023-01-03T11:08:48.264Z,64.77
2023-01-03T11:12:03.310Z,64.66
2023-01-03T11:15:37.856Z,64.62
2023-01-03T11:18:43.922Z,64.71
2023-01-03T11:22:25.248Z,64.79
2023-01-03T11:25:47.537Z,64.40
2023-01-03T11:29:09.146Z,64.35
2023-01-03T11:32:23.375Z,64.44
2023-01-03T11:35:45.178Z,64.49
2023-01-03T11:39:32.504Z,64.48
2023-01-03T11:42:35.870Z,64.61
2023-01-03T11:45:48.172Z,64.63
2023-01-03T11:48:53.942Z,65.00
2023-01-03T11:52:00.275Z,64.89
2023-01-03T11:55:22.556Z,64.65
2023-01-03T11:58:31.662Z,64.61
2023-01-03T12:01:57.468Z,64.54
2023-01-03T12:05:23.798Z,64.40
2023-01-03T12:08:30.097Z,64.28
2023-01-03T12:11:36.616Z,64.43
2023-01-03T12:15:00.679Z,64.16
2023-01-03T12:18:15.870Z,63.96
2023-01-03T12:21:31.609Z,63.96
2023-01-03T12:25:22.924Z,63.85
2023-01-03T12:28:41.063Z,63.84
2023-01-03T12:32:09.050Z,63.88
2023-01-03T12:35:35.665Z,63.86
2023-01-03T12:38:45.208Z,63.80
2023-01-03T12:42:01.554Z,63.79
2023-01-03T12:45:08.193Z,63.79
2023-01-03T12:48:11.702Z,63.75
2023-01-03T12:51:19.952Z,63.70
2023-01-03T12:54:39.809Z,63.71
2023-01-03T12:57:59.746Z,63.56
2023-01-03T13:01:15.981Z,63.46
2023-01-03T13:04:32.309Z,63.21
2023-01-03T13:07:38.233Z,63.13
2023-01-03T13:10:46.278Z,63.07
2023-01-03T13:13:57.327Z,62.89
2023-01-03T13:17:16.833Z,62.67
2023-01-03T13:20:34.160Z,62.56
2023-01-03T13:23:58.947Z,62.52
2023-01-03T13:27:19.228Z,62.68
2023-01-03T13:30:33.134Z,62.68
2023-01-03T13:33:54.108Z,62.47
2023-01-03T13:37:06.965Z,62.22
2023-01-03T13:40:22.539Z,62.07
2023-01-03T13:43:40.288Z,62.15
2023-01-03T13:46:44.554Z,62.13
2023-01-03T13:49:55.655Z,62.26
2023-01-03T13:53:04.024Z,62.56
2023-01-03T13:56:16.778Z,62.53
2023-01-03T13:59:26.013Z,62.42
2023-01-03T14:02:36.775Z,62.57
2023-01-03T14:06:09.266Z,62.43
2023-01-03T14:09:33.794Z,62.45
2023-01-03T14:12:59.062Z,62.40
2023-01-03T14:16:23.196Z,62.36
2023-01-03T14:19:32.531Z,62.47
2023-01-03T14:22:42.027Z,62.43
2023-01-03T14:25:47.292Z,62.41
2023-01-03T14:28:53.601Z,62.38
2023-01-03T14:31:57.256Z,62.26
2023-01-03T14:35:01.457Z,62.46
2023-01-03T14:38:07.248Z,62.48
2023-01-03T14:41:35.405Z,62.62
2023-01-03T14:44:38.889Z,62.37
2023-01-03T14:47:43.580Z,62.43
2023-01-03T14:50:47.275Z,62.38
2023-01-03T14:53:51.873Z,62.41
2023-01-03T14:56:56.254Z,62.32
2023-01-03T15:00:01.765Z,62.13
2023-01-03T15:03:12.409Z,62.09
2023-01-03T15:06:28.597Z,61.85
2023-01-03T15:09:36.253Z,62.05
2023-01-03T15:12:44.725Z,62.05
2023-01-03T15:15:54.933Z,62.13
2023-01-03T15:19:06.888Z,62.28
2023-01-03T15:22:24.234Z,62.52
2023-01-03T15:25:38.613Z,62.61
2023-01-03T15:29:13.304Z,62.78
2023-01-03T15:32:19.715Z,62.78
2023-01-03T15:35:39.269Z,62.81
2023-01-03T15:38:47.776Z,62.70
2023-01-03T15:42:46.022Z,62.79
2023-01-03T15:46:06.414Z,62.67
2023-01-03T15:49:13.180Z,62.49
2023-01-03T15:52:19.403Z,62.46
2023-01-03T15:55:22.888Z,62.47
2023-01-03T15:58:28.570Z,62.35
2023-01-03T16:01:32.230Z,62.28
2023-01-03T16:04:35.913Z,62.17
2023-01-03T16:07:40.407Z,62.11
2023-01-03T16:10:43.920Z,62.14
2023-01-03T16:14:01.139Z,62.24
2023-01-03T16:17:05.563Z,62.29
2023-01-03T16:20:14.085Z,62.32
2023-01-03T16:23:30.087Z,62.28
2023-01-03T16:26:33.426Z,62.37
2023-01-03T16:29:37.005Z,62.47
2023-01-03T16:32:40.890Z,62.53
2023-01-03T16:35:44.855Z,62.73
2023-01-03T16:38:48.736Z,62.95
2023-01-03T16:42:11.999Z,63.39
2023-01-03T16:45:16.459Z,63.56
2023-01-03T16:48:23.802Z,63.73
2023-01-03T16:51:32.847Z,63.79
2023-01-03T16:54:36.587Z,63.84
2023-01-03T16:57:39.947Z,63.77
2023-01-03T17:00:45.253Z,63.76
2023-01-03T17:03:48.729Z,63.84
2023-01-03T17:06:52.283Z,63.86
2023-01-03T17:09:55.631Z,64.07
2023-01-03T17:13:00.010Z,64.14
2023-01-03T17:16:06.197Z,64.21
2023-01-03T17:20:00.004Z,64.34
2023-01-03T17:22:55.490Z,64.31
2023-01-03T17:25:59.165Z,64.35
2023-01-03T17:29:05.808Z,64.24
2023-01-03T17:32:21.199Z,64.30
2023-01-03T17:35:24.585Z,64.23
2023-01-03T17:38:29.648Z,64.13
2023-01-03T17:41:52.861Z,64.02
2023-01-03T17:45:14.524Z,63.91
2023-01-03T17:48:36.649Z,63.91
2023-01-03T17:51:39.902Z,63.93
2023-01-03T17:54:43.259Z,64.01
2023-01-03T17:57:46.685Z,64.14
2023-01-03T18:00:49.985Z,64.04
2023-01-03T18:03:53.378Z,64.08
2023-01-03T18:06:59.536Z,64.05
2023-01-03T18:10:03.381Z,64.19
2023-01-03T18:13:18.852Z,64.20
2023-01-03T18:16:23.339Z,64.07
2023-01-03T18:19:26.586Z,63.98
2023-01-03T18:22:29.863Z,63.95
2023-01-03T18:25:33.053Z,63.92
2023-01-03T18:28:36.315Z,63.85
2023-01-03T18:31:39.690Z,63.85
2023-01-03T18:34:42.940Z,63.83
2023-01-03T18:37:46.876Z,63.81
2023-01-03T18:40:50.937Z,63.67
2023-01-03T18:43:54.316Z,63.55
2023-01-03T18:46:57.677Z,63.55
2023-01-03T18:50:00.974Z,63.67
2023-01-03T18:53:04.555Z,63.50
2023-01-03T18:56:36.079Z,63.67
2023-01-03T18:59:39.365Z,63.49
2023-01-03T19:02:50.178Z,63.56
2023-01-03T19:05:57.513Z,63.75
2023-01-03T19:09:04.742Z,63.68
2023-01-03T19:15:58.107Z,63.60
2023-01-03T19:19:11.065Z,63.51
2023-01-03T19:22:33.039Z,63.44
2023-01-03T19:25:36.445Z,63.59
2023-01-03T19:28:48.624Z,63.59
2023-01-03T19:31:55.649Z,63.29
2023-01-03T19:34:59.056Z,63.39
2023-01-03T19:38:05.213Z,63.27
2023-01-03T19:41:14.461Z,63.31
2023-01-03T19:44:17.915Z,63.35
2023-01-03T19:47:29.272Z,63.13
2023-01-03T19:51:10.967Z,63.28
2023-01-03T19:54:14.253Z,63.19
2023-01-03T20:01:14.711Z,63.30
2023-01-03T20:04:18.625Z,63.31
2023-01-03T20:07:32.953Z,63.46
2023-01-03T20:10:41.494Z,63.34
2023-01-03T20:13:45.485Z,63.32
2023-01-03T20:17:26.496Z,63.34
2023-01-03T20:20:33.110Z,63.44
2023-01-03T20:23:58.116Z,63.29
2023-01-03T20:27:01.441Z,63.09
2023-01-03T20:30:14.586Z,63.03
2023-01-03T20:33:17.784Z,62.69
2023-01-03T20:36:35.630Z,62.99
2023-01-03T20:39:38.847Z,62.93
2023-01-03T20:42:42.150Z,62.97
2023-01-03T20:45:45.636Z,63.08
2023-01-03T20:48:58.049Z,62.89
2023-01-03T20:52:01.096Z,62.89
2023-01-03T20:55:04.660Z,62.98
2023-01-03T20:58:24.957Z,62.49
2023-01-03T21:01:28.511Z,62.66
2023-01-03T21:04:32.251Z,62.39
2023-01-03T21:08:10.945Z,62.19
2023-01-03T21:11:14.162Z,61.91
2023-01-03T21:14:17.352Z,61.84
2023-01-03T21:17:20.600Z,61.83
2023-01-03T21:20:26.148Z,62.01
2023-01-03T21:23:29.361Z,61.84
2023-01-03T21:26:33.592Z,62.24
2023-01-03T21:29:36.750Z,61.92
2023-01-03T21:32:40.096Z,61.90
2023-01-03T21:35:43.340Z,62.01
2023-01-03T21:38:46.591Z,61.98
2023-01-03T21:42:08.335Z,61.72
2023-01-03T21:45:13.267Z,61.93
2023-01-03T21:48:18.701Z,61.84
2023-01-03T21:51:33.430Z,61.86
2023-01-03T21:54:40.747Z,61.98
2023-01-03T21:57:44.245Z,61.82
2023-01-03T22:00:47.587Z,62.07
2023-01-03T22:04:10.034Z,61.88
2023-01-03T22:07:13.418Z,62.14
2023-01-03T22:10:16.881Z,62.07
2023-01-03T22:17:45.144Z,62.33
2023-01-03T22:20:48.370Z,62.24
2023-01-03T22:23:51.607Z,62.05
2023-01-03T22:26:55.003Z,62.29
2023-01-03T22:29:58.502Z,62.00
2023-01-03T22:33:01.867Z,62.24
2023-01-03T22:36:05.867Z,62.07
2023-01-03T22:39:09.228Z,62.02
2023-01-03T22:42:19.231Z,62.18
2023-01-03T22:45:23.039Z,62.36
2023-01-03T22:48:26.250Z,62.45
2023-01-03T22:51:29.587Z,62.24
2023-01-03T22:54:35.362Z,62.30
2023-01-03T22:57:38.623Z,61.93
2023-01-03T23:00:42.422Z,62.08
2023-01-03T23:03:47.318Z,61.65
2023-01-03T23:06:51.018Z,61.72
2023-01-03T23:09:54.313Z,61.63
2023-01-03T23:13:00.812Z,61.71
2023-01-03T23:16:04.355Z,61.87
2023-01-03T23:19:11.506Z,61.93
2023-01-03T23:22:14.984Z,61.61
2023-01-03T23:25:18.328Z,61.55
2023-01-03T23:28:21.564Z,61.61
2023-01-03T23:31:28.631Z,61.54
2023-01-03T23:34:31.958Z,61.25
2023-01-03T23:37:35.249Z,61.47
2023-01-03T23:40:43.185Z,61.21
2023-01-03T23:43:46.467Z,61.27
2023-01-03T23:46:49.653Z,61.18
2023-01-03T23:49:52.894Z,61.38
2023-01-03T23:52:57.767Z,61.30
2023-01-03T23:56:08.153Z,61.28
2023-01-03T23:59:11.406Z,61.32
